sensor_id;sensor_type;location;lat;lon;timestamp;pressure;altitude;pressure_sealevel;temperature;humidity
75794;BME280;64418;47.536;19.074;2023-07-09T00:00:42;100740.91;;;19.45;66.12
75794;BME280;64418;47.536;19.074;2023-07-09T00:03:09;100744.38;;;19.40;66.46
75794;BME280;64418;47.536;19.074;2023-07-09T00:05:37;100745.56;;;19.44;66.48
75794;BME280;64418;47.536;19.074;2023-07-09T00:08:03;100740.22;;;19.38;66.34
75794;BME280;64418;47.536;19.074;2023-07-09T00:10:29;100744.91;;;19.37;66.16
75794;BME280;64418;47.536;19.074;2023-07-09T00:12:55;100747.88;;;19.36;66.44
75794;BME280;64418;47.536;19.074;2023-07-09T00:15:21;100749.28;;;19.38;66.32
75794;BME280;64418;47.536;19.074;2023-07-09T00:17:47;100749.91;;;19.23;66.99
75794;BME280;64418;47.536;19.074;2023-07-09T00:20:34;100750.03;;;19.34;66.80
75794;BME280;64418;47.536;19.074;2023-07-09T00:23:01;100751.28;;;19.21;67.07
75794;BME280;64418;47.536;19.074;2023-07-09T00:25:28;100751.91;;;19.28;65.25
75794;BME280;64418;47.536;19.074;2023-07-09T00:27:54;100748.53;;;19.21;64.90
75794;BME280;64418;47.536;19.074;2023-07-09T00:30:22;100748.84;;;19.24;64.85
75794;BME280;64418;47.536;19.074;2023-07-09T00:32:48;100747.59;;;19.15;65.06
75794;BME280;64418;47.536;19.074;2023-07-09T00:35:15;100749.78;;;19.13;65.17
75794;BME280;64418;47.536;19.074;2023-07-09T00:37:41;100747.94;;;19.19;65.15
75794;BME280;64418;47.536;19.074;2023-07-09T00:40:15;100742.19;;;19.20;65.29
75794;BME280;64418;47.536;19.074;2023-07-09T00:42:44;100753.62;;;19.12;65.67
75794;BME280;64418;47.536;19.074;2023-07-09T00:45:31;100745.69;;;19.16;66.04
75794;BME280;64418;47.536;19.074;2023-07-09T00:47:59;100748.22;;;19.17;65.94
75794;BME280;64418;47.536;19.074;2023-07-09T00:50:34;100748.97;;;19.13;66.59
75794;BME280;64418;47.536;19.074;2023-07-09T00:53:23;100748.87;;;19.08;66.97
75794;BME280;64418;47.536;19.074;2023-07-09T00:55:56;100739.16;;;19.00;67.17
75794;BME280;64418;47.536;19.074;2023-07-09T00:58:26;100735.34;;;19.01;67.28
75794;BME280;64418;47.536;19.074;2023-07-09T01:00:55;100733.97;;;19.04;66.77
75794;BME280;64418;47.536;19.074;2023-07-09T01:03:25;100741.97;;;19.05;67.36
75794;BME280;64418;47.536;19.074;2023-07-09T01:05:51;100746.00;;;18.98;67.63
75794;BME280;64418;47.536;19.074;2023-07-09T01:08:18;100748.41;;;18.94;67.96
75794;BME280;64418;47.536;19.074;2023-07-09T01:10:45;100744.28;;;18.92;68.14
75794;BME280;64418;47.536;19.074;2023-07-09T01:13:12;100743.16;;;18.93;68.33
75794;BME280;64418;47.536;19.074;2023-07-09T01:15:39;100738.37;;;18.83;68.42
75794;BME280;64418;47.536;19.074;2023-07-09T01:18:05;100741.87;;;18.79;68.92
75794;BME280;64418;47.536;19.074;2023-07-09T01:23:19;100733.47;;;18.68;68.51
75794;BME280;64418;47.536;19.074;2023-07-09T01:25:50;100739.47;;;18.65;69.14
75794;BME280;64418;47.536;19.074;2023-07-09T01:28:16;100745.13;;;18.59;69.73
75794;BME280;64418;47.536;19.074;2023-07-09T01:31:02;100745.37;;;18.57;69.79
75794;BME280;64418;47.536;19.074;2023-07-09T01:33:28;100749.19;;;18.56;69.62
75794;BME280;64418;47.536;19.074;2023-07-09T01:35:54;100748.41;;;18.44;70.50
75794;BME280;64418;47.536;19.074;2023-07-09T01:38:42;100751.00;;;18.34;70.95
75794;BME280;64418;47.536;19.074;2023-07-09T01:41:08;100751.56;;;18.36;70.87
75794;BME280;64418;47.536;19.074;2023-07-09T01:43:34;100750.50;;;18.37;70.73
75794;BME280;64418;47.536;19.074;2023-07-09T01:46:00;100757.31;;;18.35;70.62
75794;BME280;64418;47.536;19.074;2023-07-09T01:48:27;100755.47;;;18.23;71.01
75794;BME280;64418;47.536;19.074;2023-07-09T01:50:53;100755.72;;;18.22;71.18
75794;BME280;64418;47.536;19.074;2023-07-09T01:53:22;100754.81;;;18.16;71.48
75794;BME280;64418;47.536;19.074;2023-07-09T01:55:50;100760.75;;;18.13;71.70
75794;BME280;64418;47.536;19.074;2023-07-09T01:58:17;100764.84;;;18.11;72.13
75794;BME280;64418;47.536;19.074;2023-07-09T02:00:44;100766.84;;;18.15;71.74
75794;BME280;64418;47.536;19.074;2023-07-09T02:03:10;100762.94;;;18.11;72.25
75794;BME280;64418;47.536;19.074;2023-07-09T02:05:36;100759.59;;;18.09;72.73
75794;BME280;64418;47.536;19.074;2023-07-09T02:08:23;100762.09;;;18.11;72.74
75794;BME280;64418;47.536;19.074;2023-07-09T02:10:50;100756.09;;;17.97;73.27
75794;BME280;64418;47.536;19.074;2023-07-09T02:13:16;100772.63;;;18.02;73.71
75794;BME280;64418;47.536;19.074;2023-07-09T02:16:02;100769.66;;;18.04;73.70
75794;BME280;64418;47.536;19.074;2023-07-09T02:18:29;100771.56;;;18.03;73.22
75794;BME280;64418;47.536;19.074;2023-07-09T02:20:55;100778.38;;;18.01;73.16
75794;BME280;64418;47.536;19.074;2023-07-09T02:23:26;100772.50;;;18.09;72.73
75794;BME280;64418;47.536;19.074;2023-07-09T02:25:53;100771.56;;;18.03;72.78
75794;BME280;64418;47.536;19.074;2023-07-09T02:28:19;100775.13;;;18.04;72.57
75794;BME280;64418;47.536;19.074;2023-07-09T02:30:45;100775.25;;;18.09;72.71
75794;BME280;64418;47.536;19.074;2023-07-09T02:33:11;100768.91;;;18.08;72.36
75794;BME280;64418;47.536;19.074;2023-07-09T02:35:37;100766.63;;;18.05;72.95
75794;BME280;64418;47.536;19.074;2023-07-09T02:38:23;100768.25;;;18.01;73.17
75794;BME280;64418;47.536;19.074;2023-07-09T02:40:49;100768.69;;;17.98;72.95
75794;BME280;64418;47.536;19.074;2023-07-09T02:43:16;100777.53;;;18.00;72.86
75794;BME280;64418;47.536;19.074;2023-07-09T02:45:42;100770.31;;;18.11;72.32
75794;BME280;64418;47.536;19.074;2023-07-09T02:48:08;100770.09;;;18.12;72.41
75794;BME280;64418;47.536;19.074;2023-07-09T02:50:35;100765.22;;;18.03;72.62
75794;BME280;64418;47.536;19.074;2023-07-09T02:53:21;100763.22;;;17.98;72.86
75794;BME280;64418;47.536;19.074;2023-07-09T02:55:47;100765.87;;;17.93;72.83
75794;BME280;64418;47.536;19.074;2023-07-09T02:58:13;100768.69;;;17.98;72.61
75794;BME280;64418;47.536;19.074;2023-07-09T03:00:40;100767.53;;;17.94;72.88
75794;BME280;64418;47.536;19.074;2023-07-09T03:03:06;100771.38;;;17.93;72.99
75794;BME280;64418;47.536;19.074;2023-07-09T03:05:33;100774.00;;;17.88;73.04
75794;BME280;64418;47.536;19.074;2023-07-09T03:07:59;100768.34;;;17.78;72.98
75794;BME280;64418;47.536;19.074;2023-07-09T03:10:25;100780.47;;;17.82;72.51
75794;BME280;64418;47.536;19.074;2023-07-09T03:12:51;100781.78;;;17.79;72.08
75794;BME280;64418;47.536;19.074;2023-07-09T03:15:17;100785.97;;;17.82;71.64
75794;BME280;64418;47.536;19.074;2023-07-09T03:17:44;100785.13;;;17.82;70.95
75794;BME280;64418;47.536;19.074;2023-07-09T03:20:30;100780.94;;;17.79;70.45
75794;BME280;64418;47.536;19.074;2023-07-09T03:22:55;100785.97;;;17.82;69.82
75794;BME280;64418;47.536;19.074;2023-07-09T03:25:21;100789.75;;;17.81;69.77
75794;BME280;64418;47.536;19.074;2023-07-09T03:27:48;100793.56;;;17.80;69.77
75794;BME280;64418;47.536;19.074;2023-07-09T03:30:14;100791.31;;;17.77;69.96
75794;BME280;64418;47.536;19.074;2023-07-09T03:32:39;100787.97;;;17.75;69.81
75794;BME280;64418;47.536;19.074;2023-07-09T03:35:07;100791.56;;;17.75;69.84
75794;BME280;64418;47.536;19.074;2023-07-09T03:37:33;100783.81;;;17.72;69.76
75794;BME280;64418;47.536;19.074;2023-07-09T03:39:59;100797.31;;;17.74;69.92
75794;BME280;64418;47.536;19.074;2023-07-09T03:42:25;100790.88;;;17.68;70.16
75794;BME280;64418;47.536;19.074;2023-07-09T03:44:51;100796.34;;;17.68;70.43
75794;BME280;64418;47.536;19.074;2023-07-09T03:47:17;100797.31;;;17.74;70.64
75794;BME280;64418;47.536;19.074;2023-07-09T03:50:05;100801.94;;;17.73;70.53
75794;BME280;64418;47.536;19.074;2023-07-09T03:52:32;100794.41;;;17.80;70.65
75794;BME280;64418;47.536;19.074;2023-07-09T03:54:58;100793.56;;;17.80;70.91
75794;BME280;64418;47.536;19.074;2023-07-09T03:57:24;100786.16;;;17.92;70.45
75794;BME280;64418;47.536;19.074;2023-07-09T03:59:50;100790.16;;;18.01;70.02
75794;BME280;64418;47.536;19.074;2023-07-09T04:02:15;100786.78;;;18.11;69.47
75794;BME280;64418;47.536;19.074;2023-07-09T04:05:01;100789.06;;;18.02;69.75
75794;BME280;64418;47.536;19.074;2023-07-09T04:07:27;100789.06;;;18.02;69.33
75794;BME280;64418;47.536;19.074;2023-07-09T04:10:14;100794.16;;;18.10;68.94
75794;BME280;64418;47.536;19.074;2023-07-09T04:12:41;100801.31;;;18.11;68.92
75794;BME280;64418;47.536;19.074;2023-07-09T04:15:08;100795.56;;;18.13;69.08
75794;BME280;64418;47.536;19.074;2023-07-09T04:17:34;100796.50;;;18.18;69.00
75794;BME280;64418;47.536;19.074;2023-07-09T04:20:01;100801.28;;;18.23;69.10
75794;BME280;64418;47.536;19.074;2023-07-09T04:22:27;100797.69;;;18.22;69.21
75794;BME280;64418;47.536;19.074;2023-07-09T04:24:53;100798.88;;;18.26;69.25
75794;BME280;64418;47.536;19.074;2023-07-09T04:27:20;100806.87;;;18.45;68.55
75794;BME280;64418;47.536;19.074;2023-07-09T04:29:46;100809.34;;;18.58;67.82
75794;BME280;64418;47.536;19.074;2023-07-09T04:32:32;100807.91;;;18.55;67.78
75794;BME280;64418;47.536;19.074;2023-07-09T04:34:58;100807.81;;;18.67;67.26
75794;BME280;64418;47.536;19.074;2023-07-09T04:37:24;100801.50;;;18.66;67.25
75794;BME280;64418;47.536;19.074;2023-07-09T04:39:50;100800.94;;;18.64;67.58
75794;BME280;64418;47.536;19.074;2023-07-09T04:42:17;100810.06;;;18.70;67.50
75794;BME280;64418;47.536;19.074;2023-07-09T04:44:45;100810.72;;;18.77;67.57
75794;BME280;64418;47.536;19.074;2023-07-09T04:47:11;100807.56;;;18.85;67.41
75794;BME280;64418;47.536;19.074;2023-07-09T04:49:37;100775.31;;;18.75;67.42
75794;BME280;64418;47.536;19.074;2023-07-09T04:52:03;100806.16;;;18.99;67.46
75794;BME280;64418;47.536;19.074;2023-07-09T04:54:30;100803.81;;;19.08;67.38
75794;BME280;64418;47.536;19.074;2023-07-09T04:56:56;100815.22;;;19.16;67.44
75794;BME280;64418;47.536;19.074;2023-07-09T04:59:22;100814.19;;;19.22;67.65
75794;BME280;64418;47.536;19.074;2023-07-09T05:01:49;100809.94;;;19.15;68.28
75794;BME280;64418;47.536;19.074;2023-07-09T05:04:15;100817.25;;;19.26;68.09
75794;BME280;64418;47.536;19.074;2023-07-09T05:06:41;100817.66;;;19.35;67.86
75794;BME280;64418;47.536;19.074;2023-07-09T05:09:07;100821.00;;;19.37;67.72
75794;BME280;64418;47.536;19.074;2023-07-09T05:11:35;100806.16;;;19.54;67.07
75794;BME280;64418;47.536;19.074;2023-07-09T05:14:21;100811.41;;;19.56;67.48
75794;BME280;64418;47.536;19.074;2023-07-09T05:16:48;100812.03;;;19.63;66.32
75794;BME280;64418;47.536;19.074;2023-07-09T05:19:14;100816.50;;;19.69;64.92
75794;BME280;64418;47.536;19.074;2023-07-09T05:22:00;100820.72;;;19.77;64.89
75794;BME280;64418;47.536;19.074;2023-07-09T05:24:26;100810.50;;;19.94;64.18
75794;BME280;64418;47.536;19.074;2023-07-09T05:27:11;100816.87;;;19.99;65.09
75794;BME280;64418;47.536;19.074;2023-07-09T05:29:37;100809.56;;;20.10;65.17
75794;BME280;64418;47.536;19.074;2023-07-09T05:32:06;100812.75;;;20.24;64.88
75794;BME280;64418;47.536;19.074;2023-07-09T05:34:32;100812.41;;;20.42;64.37
75794;BME280;64418;47.536;19.074;2023-07-09T05:36:58;100815.53;;;20.50;63.72
75794;BME280;64418;47.536;19.074;2023-07-09T05:39:43;100815.09;;;20.37;63.25
75794;BME280;64418;47.536;19.074;2023-07-09T05:42:09;100816.00;;;20.74;62.27
75794;BME280;64418;47.536;19.074;2023-07-09T05:44:35;100811.09;;;20.81;62.08
75794;BME280;64418;47.536;19.074;2023-07-09T05:47:01;100820.25;;;20.87;61.42
75794;BME280;64418;47.536;19.074;2023-07-09T05:49:29;100825.12;;;21.11;60.51
75794;BME280;64418;47.536;19.074;2023-07-09T05:51:56;100818.91;;;21.26;60.28
75794;BME280;64418;47.536;19.074;2023-07-09T05:54:42;100816.81;;;21.43;59.66
75794;BME280;64418;47.536;19.074;2023-07-09T05:57:08;100812.78;;;21.66;58.78
75794;BME280;64418;47.536;19.074;2023-07-09T05:59:53;100812.03;;;21.86;57.78
75794;BME280;64418;47.536;19.074;2023-07-09T06:02:39;100824.00;;;22.06;56.71
75794;BME280;64418;47.536;19.074;2023-07-09T06:05:08;100822.41;;;22.31;55.82
75794;BME280;64418;47.536;19.074;2023-07-09T06:07:34;100823.56;;;22.50;54.43
75794;BME280;64418;47.536;19.074;2023-07-09T06:10:20;100816.69;;;22.68;54.79
75794;BME280;64418;47.536;19.074;2023-07-09T06:12:49;100813.09;;;22.87;54.34
75794;BME280;64418;47.536;19.074;2023-07-09T06:15:15;100813.88;;;23.08;53.80
75794;BME280;64418;47.536;19.074;2023-07-09T06:17:41;100810.28;;;23.23;53.05
75794;BME280;64418;47.536;19.074;2023-07-09T06:20:11;100814.69;;;23.44;52.69
75794;BME280;64418;47.536;19.074;2023-07-09T06:22:36;100815.75;;;23.63;52.08
75794;BME280;64418;47.536;19.074;2023-07-09T06:25:22;100817.03;;;23.81;51.62
75794;BME280;64418;47.536;19.074;2023-07-09T06:27:48;100816.37;;;24.04;51.19
75794;BME280;64418;47.536;19.074;2023-07-09T06:30:36;100816.59;;;24.23;50.75
75794;BME280;64418;47.536;19.074;2023-07-09T06:33:02;100818.09;;;24.44;49.69
75794;BME280;64418;47.536;19.074;2023-07-09T06:35:29;100820.81;;;24.54;48.42
75794;BME280;64418;47.536;19.074;2023-07-09T06:37:55;100820.66;;;24.74;47.77
75794;BME280;64418;47.536;19.074;2023-07-09T06:40:21;100816.00;;;25.04;47.76
75794;BME280;64418;47.536;19.074;2023-07-09T06:42:47;100808.41;;;25.14;47.07
75794;BME280;64418;47.536;19.074;2023-07-09T06:45:32;100812.41;;;25.27;46.34
75794;BME280;64418;47.536;19.074;2023-07-09T06:47:59;100814.47;;;25.45;45.80
75794;BME280;64418;47.536;19.074;2023-07-09T06:50:25;100815.84;;;25.71;45.15
75794;BME280;64418;47.536;19.074;2023-07-09T06:53:12;100813.41;;;25.88;44.75
75794;BME280;64418;47.536;19.074;2023-07-09T06:55:38;100808.75;;;26.03;43.18
75794;BME280;64418;47.536;19.074;2023-07-09T06:58:04;100812.97;;;26.24;43.43
75794;BME280;64418;47.536;19.074;2023-07-09T07:00:30;100817.47;;;26.39;43.12
75794;BME280;64418;47.536;19.074;2023-07-09T07:02:56;100812.94;;;26.61;42.10
75794;BME280;64418;47.536;19.074;2023-07-09T07:05:43;100807.97;;;26.77;42.30
75794;BME280;64418;47.536;19.074;2023-07-09T07:08:12;100809.69;;;26.92;41.85
75794;BME280;64418;47.536;19.074;2023-07-09T07:10:38;100814.88;;;27.12;41.25
75794;BME280;64418;47.536;19.074;2023-07-09T07:13:04;100815.69;;;26.99;40.83
75794;BME280;64418;47.536;19.074;2023-07-09T07:15:30;100809.34;;;27.39;40.62
75794;BME280;64418;47.536;19.074;2023-07-09T07:17:56;100822.81;;;27.64;40.44
75794;BME280;64418;47.536;19.074;2023-07-09T07:20:42;100825.06;;;27.62;39.66
75794;BME280;64418;47.536;19.074;2023-07-09T07:23:08;100819.31;;;27.59;39.93
75794;BME280;64418;47.536;19.074;2023-07-09T07:25:35;100820.03;;;27.64;40.26
75794;BME280;64418;47.536;19.074;2023-07-09T07:28:01;100829.69;;;27.53;40.76
75794;BME280;64418;47.536;19.074;2023-07-09T07:30:27;100820.84;;;27.79;40.37
75794;BME280;64418;47.536;19.074;2023-07-09T07:33:14;100817.84;;;27.89;39.91
75794;BME280;64418;47.536;19.074;2023-07-09T07:35:40;100817.53;;;28.04;39.18
75794;BME280;64418;47.536;19.074;2023-07-09T07:38:06;100812.97;;;28.21;38.86
75794;BME280;64418;47.536;19.074;2023-07-09T07:40:32;100815.72;;;28.35;38.76
75794;BME280;64418;47.536;19.074;2023-07-09T07:42:59;100812.47;;;28.19;38.07
75794;BME280;64418;47.536;19.074;2023-07-09T07:45:25;100818.19;;;28.37;37.45
75794;BME280;64418;47.536;19.074;2023-07-09T07:48:11;100818.28;;;28.67;36.74
75794;BME280;64418;47.536;19.074;2023-07-09T07:50:38;100820.34;;;28.76;36.20
75794;BME280;64418;47.536;19.074;2023-07-09T07:53:04;100820.50;;;28.93;36.29
75794;BME280;64418;47.536;19.074;2023-07-09T07:55:30;100816.13;;;29.31;35.21
75794;BME280;64418;47.536;19.074;2023-07-09T07:57:56;100814.69;;;29.34;34.82
75794;BME280;64418;47.536;19.074;2023-07-09T08:00:24;100820.72;;;29.67;34.94
75794;BME280;64418;47.536;19.074;2023-07-09T08:03:10;100808.69;;;29.97;34.83
75794;BME280;64418;47.536;19.074;2023-07-09T08:05:35;100806.69;;;29.89;34.43
75794;BME280;64418;47.536;19.074;2023-07-09T08:08:21;100816.75;;;30.07;32.72
75794;BME280;64418;47.536;19.074;2023-07-09T08:10:49;100818.25;;;30.13;33.03
75794;BME280;64418;47.536;19.074;2023-07-09T08:13:15;100813.56;;;29.83;33.13
75794;BME280;64418;47.536;19.074;2023-07-09T08:15:42;100819.38;;;29.95;32.41
75794;BME280;64418;47.536;19.074;2023-07-09T08:18:09;100817.00;;;29.80;32.48
75794;BME280;64418;47.536;19.074;2023-07-09T08:20:35;100816.59;;;30.03;32.23
75794;BME280;64418;47.536;19.074;2023-07-09T08:23:01;100818.38;;;29.99;30.97
75794;BME280;64418;47.536;19.074;2023-07-09T08:25:27;100815.63;;;30.08;30.21
75794;BME280;64418;47.536;19.074;2023-07-09T08:28:13;100828.16;;;30.36;29.65
75794;BME280;64418;47.536;19.074;2023-07-09T08:30:39;100824.16;;;29.94;30.24
75794;BME280;64418;47.536;19.074;2023-07-09T08:33:06;100818.94;;;30.36;29.82
75794;BME280;64418;47.536;19.074;2023-07-09T08:35:32;100818.28;;;30.39;29.70
75794;BME280;64418;47.536;19.074;2023-07-09T08:37:57;100811.69;;;30.18;29.64
75794;BME280;64418;47.536;19.074;2023-07-09T08:40:23;100812.87;;;30.42;29.81
75794;BME280;64418;47.536;19.074;2023-07-09T08:42:53;100812.03;;;31.02;29.45
75794;BME280;64418;47.536;19.074;2023-07-09T08:45:49;100821.59;;;30.75;28.22
75794;BME280;64418;47.536;19.074;2023-07-09T08:48:24;100809.56;;;31.09;28.42
75794;BME280;64418;47.536;19.074;2023-07-09T08:50:55;100809.25;;;30.85;28.56
75794;BME280;64418;47.536;19.074;2023-07-09T08:53:47;100805.19;;;31.37;27.68
75794;BME280;64418;47.536;19.074;2023-07-09T08:56:35;100811.88;;;31.07;28.58
75794;BME280;64418;47.536;19.074;2023-07-09T08:59:21;100804.88;;;31.30;28.03
75794;BME280;64418;47.536;19.074;2023-07-09T09:01:51;100807.94;;;31.08;28.43
75794;BME280;64418;47.536;19.074;2023-07-09T09:04:23;100807.34;;;31.32;27.89
75794;BME280;64418;47.536;19.074;2023-07-09T09:06:59;100812.87;;;31.58;27.29
75794;BME280;64418;47.536;19.074;2023-07-09T09:09:33;100804.50;;;31.40;27.15
75794;BME280;64418;47.536;19.074;2023-07-09T09:12:27;100815.31;;;31.68;27.35
75794;BME280;64418;47.536;19.074;2023-07-09T09:15:17;100809.66;;;32.06;27.01
75794;BME280;64418;47.536;19.074;2023-07-09T09:17:43;100809.56;;;32.23;27.02
75794;BME280;64418;47.536;19.074;2023-07-09T09:20:16;100809.97;;;32.54;26.09
75794;BME280;64418;47.536;19.074;2023-07-09T09:23:12;100811.56;;;32.64;26.40
75794;BME280;64418;47.536;19.074;2023-07-09T09:25:42;100812.34;;;32.23;26.87
75794;BME280;64418;47.536;19.074;2023-07-09T09:28:35;100810.19;;;32.28;26.60
75794;BME280;64418;47.536;19.074;2023-07-09T09:31:02;100813.56;;;31.84;25.89
75794;BME280;64418;47.536;19.074;2023-07-09T09:33:37;100803.63;;;31.95;25.72
75794;BME280;64418;47.536;19.074;2023-07-09T09:36:15;100799.56;;;32.55;24.38
75794;BME280;64418;47.536;19.074;2023-07-09T09:39:02;100811.75;;;32.59;23.55
75794;BME280;64418;47.536;19.074;2023-07-09T09:41:31;100804.97;;;32.60;23.75
75794;BME280;64418;47.536;19.074;2023-07-09T09:43:59;100801.53;;;32.75;24.39
75794;BME280;64418;47.536;19.074;2023-07-09T09:46:27;100808.19;;;32.50;25.14
75794;BME280;64418;47.536;19.074;2023-07-09T09:49:12;100803.56;;;31.74;25.66
75794;BME280;64418;47.536;19.074;2023-07-09T09:51:44;100803.00;;;32.39;24.96
75794;BME280;64418;47.536;19.074;2023-07-09T09:54:32;100802.47;;;32.67;24.68
75794;BME280;64418;47.536;19.074;2023-07-09T09:56:58;100806.69;;;32.31;24.33
75794;BME280;64418;47.536;19.074;2023-07-09T09:59:45;100804.97;;;33.13;23.34
75794;BME280;64418;47.536;19.074;2023-07-09T10:02:39;100798.00;;;33.44;23.48
75794;BME280;64418;47.536;19.074;2023-07-09T10:05:11;100793.00;;;33.61;23.53
75794;BME280;64418;47.536;19.074;2023-07-09T10:07:42;100793.34;;;33.96;23.15
75794;BME280;64418;47.536;19.074;2023-07-09T10:10:13;100798.19;;;33.71;23.16
75794;BME280;64418;47.536;19.074;2023-07-09T10:12:43;100802.72;;;33.88;22.49
75794;BME280;64418;47.536;19.074;2023-07-09T10:15:40;100789.81;;;33.63;22.55
75794;BME280;64418;47.536;19.074;2023-07-09T10:18:20;100784.62;;;33.28;23.06
75794;BME280;64418;47.536;19.074;2023-07-09T10:21:15;100782.56;;;32.92;23.53
75794;BME280;64418;47.536;19.074;2023-07-09T10:23:51;100793.25;;;33.68;22.86
75794;BME280;64418;47.536;19.074;2023-07-09T10:26:23;100764.06;;;33.73;23.04
75794;BME280;64418;47.536;19.074;2023-07-09T10:29:14;100783.63;;;33.69;22.66
75794;BME280;64418;47.536;19.074;2023-07-09T10:31:50;100791.88;;;33.17;22.36
75794;BME280;64418;47.536;19.074;2023-07-09T10:34:26;100793.50;;;34.52;20.59
75794;BME280;64418;47.536;19.074;2023-07-09T10:40:12;100787.16;;;34.03;21.44
75794;BME280;64418;47.536;19.074;2023-07-09T10:42:45;100785.81;;;33.27;21.86
75794;BME280;64418;47.536;19.074;2023-07-09T10:45:39;100783.34;;;34.91;20.24
75794;BME280;64418;47.536;19.074;2023-07-09T10:48:09;100793.50;;;34.52;20.96
75794;BME280;64418;47.536;19.074;2023-07-09T10:50:41;100785.16;;;34.83;20.79
75794;BME280;64418;47.536;19.074;2023-07-09T10:53:12;100786.81;;;34.84;20.82
75794;BME280;64418;47.536;19.074;2023-07-09T10:55:47;100771.88;;;35.11;20.34
75794;BME280;64418;47.536;19.074;2023-07-09T10:58:25;100777.22;;;35.01;20.63
75794;BME280;64418;47.536;19.074;2023-07-09T11:01:13;100769.09;;;34.56;20.16
75794;BME280;64418;47.536;19.074;2023-07-09T11:04:02;100774.72;;;34.56;20.49
75794;BME280;64418;47.536;19.074;2023-07-09T11:06:34;100771.91;;;34.56;20.24
75794;BME280;64418;47.536;19.074;2023-07-09T11:09:02;100776.22;;;34.93;19.21
75794;BME280;64418;47.536;19.074;2023-07-09T11:11:55;100768.72;;;34.57;18.82
75794;BME280;64418;47.536;19.074;2023-07-09T11:14:28;100762.28;;;36.10;18.19
75794;BME280;64418;47.536;19.074;2023-07-09T11:16:58;100772.53;;;34.77;18.84
75794;BME280;64418;47.536;19.074;2023-07-09T11:19:28;100770.62;;;34.81;19.05
75794;BME280;64418;47.536;19.074;2023-07-09T11:22:04;100762.56;;;35.39;19.02
75794;BME280;64418;47.536;19.074;2023-07-09T11:24:33;100760.25;;;35.28;19.64
75794;BME280;64418;47.536;19.074;2023-07-09T11:27:24;100753.34;;;34.67;20.06
75794;BME280;64418;47.536;19.074;2023-07-09T11:29:57;100754.09;;;35.23;19.45
75794;BME280;64418;47.536;19.074;2023-07-09T11:32:24;100752.16;;;35.11;20.09
75794;BME280;64418;47.536;19.074;2023-07-09T11:35:21;100755.53;;;33.69;21.20
75794;BME280;64418;47.536;19.074;2023-07-09T11:37:47;100749.22;;;34.64;19.93
75794;BME280;64418;47.536;19.074;2023-07-09T11:40:33;100751.50;;;35.02;19.50
75794;BME280;64418;47.536;19.074;2023-07-09T11:43:01;100746.81;;;34.78;19.99
75794;BME280;64418;47.536;19.074;2023-07-09T11:45:30;100753.31;;;34.39;20.66
75794;BME280;64418;47.536;19.074;2023-07-09T11:48:02;100744.91;;;34.67;20.16
75794;BME280;64418;47.536;19.074;2023-07-09T11:50:40;100749.72;;;34.54;20.46
75794;BME280;64418;47.536;19.074;2023-07-09T11:53:23;100737.56;;;34.94;20.40
75794;BME280;64418;47.536;19.074;2023-07-09T11:55:54;100732.72;;;35.53;19.55
75794;BME280;64418;47.536;19.074;2023-07-09T11:58:21;100736.28;;;35.85;19.51
75794;BME280;64418;47.536;19.074;2023-07-09T12:00:49;100743.66;;;34.80;20.25
75794;BME280;64418;47.536;19.074;2023-07-09T12:03:19;100732.84;;;34.98;20.03
75794;BME280;64418;47.536;19.074;2023-07-09T12:05:50;100727.31;;;35.01;19.84
75794;BME280;64418;47.536;19.074;2023-07-09T12:08:17;100728.63;;;35.19;19.34
75794;BME280;64418;47.536;19.074;2023-07-09T12:10:44;100735.78;;;35.80;19.11
75794;BME280;64418;47.536;19.074;2023-07-09T12:13:37;100724.97;;;35.03;19.69
75794;BME280;64418;47.536;19.074;2023-07-09T12:16:27;100728.81;;;34.40;20.92
75794;BME280;64418;47.536;19.074;2023-07-09T12:19:15;100719.28;;;34.44;21.12
75794;BME280;64418;47.536;19.074;2023-07-09T12:21:43;100715.13;;;35.60;20.08
75794;BME280;64418;47.536;19.074;2023-07-09T12:24:35;100710.16;;;35.88;19.85
75794;BME280;64418;47.536;19.074;2023-07-09T12:27:03;100717.53;;;35.26;20.36
75794;BME280;64418;47.536;19.074;2023-07-09T12:29:54;100713.66;;;34.16;21.81
75794;BME280;64418;47.536;19.074;2023-07-09T12:32:44;100713.47;;;34.53;21.43
75794;BME280;64418;47.536;19.074;2023-07-09T12:35:30;100706.06;;;34.88;20.77
75794;BME280;64418;47.536;19.074;2023-07-09T12:37:56;100700.78;;;35.02;20.53
75794;BME280;64418;47.536;19.074;2023-07-09T12:40:23;100690.16;;;35.11;20.58
75794;BME280;64418;47.536;19.074;2023-07-09T12:42:54;100690.19;;;36.32;19.18
75794;BME280;64418;47.536;19.074;2023-07-09T12:45:42;100695.59;;;35.67;19.76
75794;BME280;64418;47.536;19.074;2023-07-09T12:48:11;100684.56;;;34.68;20.23
75794;BME280;64418;47.536;19.074;2023-07-09T12:50:38;100687.38;;;34.12;20.93
75794;BME280;64418;47.536;19.074;2023-07-09T12:53:14;100694.06;;;33.19;22.00
75794;BME280;64418;47.536;19.074;2023-07-09T12:56:03;100690.63;;;33.62;21.87
75794;BME280;64418;47.536;19.074;2023-07-09T12:58:38;100687.69;;;33.83;21.56
75794;BME280;64418;47.536;19.074;2023-07-09T13:01:07;100684.41;;;34.33;20.69
75794;BME280;64418;47.536;19.074;2023-07-09T13:03:35;100681.09;;;35.18;19.87
75794;BME280;64418;47.536;19.074;2023-07-09T13:06:29;100674.00;;;34.93;20.23
75794;BME280;64418;47.536;19.074;2023-07-09T13:08:58;100667.25;;;34.82;20.73
75794;BME280;64418;47.536;19.074;2023-07-09T13:11:32;100678.53;;;34.97;20.97